Livingston, Illinois
Current Conditions -  °F | °C
As of 5:55 PM on Friday 19 Dec 2014 (Local Time) from K3LF Reporting Station
Overcast Overcast  
Wind Chill: -3°   Ceiling: 6000
Heat Index:   Visibility: 10mi
Dew Point: -5°   Wind: 5mph
Humidity: 69%   Direction: 70°ENE
Pressure: 30.27"   Gusts: NA
Location:  38.97°N, 89.76°W
Report Text: K3LF 192355Z AUTO 07004KT 10SM OVC060 00/M05 A3027 RMK AO2 T00001051 10013 20000
Loading
Personal Weather Stations






























Interactive Weather Map New forecast layout! Learn more

10-Day Weather Forecast

Advertisements
Track Severe Weather on mobile